createdAt,value
2023-04-11T00:03:25.278Z,13.42
2023-04-11T00:08:28.521Z,13.34
2023-04-11T00:13:30.263Z,13.21
2023-04-11T00:18:35.892Z,13.12
2023-04-11T00:23:39.539Z,13.05
2023-04-11T00:28:41.292Z,12.96
2023-04-11T00:33:43.153Z,12.89
2023-04-11T00:38:46.339Z,12.82
2023-04-11T00:43:49.588Z,12.80
2023-04-11T00:48:51.429Z,12.75
2023-04-11T00:53:54.600Z,12.64
2023-04-11T00:58:56.522Z,12.44
2023-04-11T01:04:01.074Z,12.29
2023-04-11T01:09:06.213Z,12.09
2023-04-11T01:14:07.924Z,12.10
2023-04-11T01:19:09.634Z,12.13
2023-04-11T01:24:12.778Z,12.06
2023-04-11T01:29:15.005Z,11.99
2023-04-11T01:34:17.752Z,11.96
2023-04-11T01:39:20.876Z,11.92
2023-04-11T01:44:22.696Z,11.92
2023-04-11T01:49:24.733Z,11.89
2023-04-11T01:54:28.565Z,11.89
2023-04-11T01:59:30.340Z,11.89
2023-04-11T02:04:32.178Z,11.85
2023-04-11T02:09:36.266Z,11.83
2023-04-11T02:14:41.980Z,11.79
2023-04-11T02:19:45.223Z,11.82
2023-04-11T02:24:48.379Z,11.81
2023-04-11T02:29:50.420Z,11.80
2023-04-11T02:34:52.142Z,11.79
2023-04-11T02:39:55.861Z,11.76
2023-04-11T02:44:57.581Z,11.74
2023-04-11T02:50:02.554Z,11.65
2023-04-11T02:55:11.290Z,11.62
2023-04-11T03:00:13.604Z,11.65
2023-04-11T03:05:23.987Z,11.61
2023-04-11T03:10:29.630Z,11.58
2023-04-11T03:15:32.640Z,11.56
2023-04-11T03:20:39.222Z,11.52
2023-04-11T03:25:48.375Z,11.48
2023-04-11T03:30:52.985Z,11.47
2023-04-11T03:35:57.174Z,11.41
2023-04-11T03:41:00.915Z,11.35
2023-04-11T03:46:03.267Z,11.31
2023-04-11T03:51:15.474Z,11.34
2023-04-11T03:56:27.946Z,11.30
2023-04-11T04:01:30.230Z,11.31
2023-04-11T04:06:36.281Z,11.30
2023-04-11T04:11:40.411Z,11.17
2023-04-11T04:16:42.297Z,10.60
2023-04-11T04:21:46.602Z,10.35
2023-04-11T04:26:52.409Z,10.03
2023-04-11T04:32:11.243Z,9.78
2023-04-11T04:37:23.152Z,9.68
2023-04-11T04:42:32.764Z,9.67
2023-04-11T04:47:38.601Z,9.60
2023-04-11T04:52:41.124Z,9.53
2023-04-11T04:57:44.633Z,9.47
2023-04-11T05:02:47.074Z,9.45
2023-04-11T05:07:49.110Z,9.40
2023-04-11T05:12:53.549Z,9.45
2023-04-11T05:17:55.614Z,9.46
2023-04-11T05:22:57.646Z,9.44
2023-04-11T05:28:01.042Z,9.47
2023-04-11T05:33:03.112Z,9.49
2023-04-11T05:38:05.162Z,9.49
2023-04-11T05:43:13.340Z,9.53
2023-04-11T05:48:16.174Z,9.52
2023-04-11T05:53:18.333Z,9.52
2023-04-11T05:58:21.483Z,9.51
2023-04-11T06:03:23.382Z,9.60
2023-04-11T06:08:25.458Z,9.74
2023-04-11T06:13:28.585Z,9.75
2023-04-11T06:18:30.343Z,9.56
2023-04-11T06:23:31.991Z,9.42
2023-04-11T06:28:35.176Z,9.40
2023-04-11T06:33:37.672Z,9.43
2023-04-11T06:38:40.511Z,9.47
2023-04-11T06:43:43.567Z,9.44
2023-04-11T06:48:45.241Z,9.39
2023-04-11T06:53:47.018Z,9.39
2023-04-11T06:58:50.075Z,9.43
2023-04-11T07:03:53.098Z,9.41
2023-04-11T07:08:54.915Z,9.41
2023-04-11T07:13:58.722Z,9.40
2023-04-11T07:19:00.459Z,9.38
2023-04-11T07:24:02.167Z,9.45
2023-04-11T07:29:06.074Z,9.50
2023-04-11T07:34:09.606Z,9.65
2023-04-11T07:39:12.305Z,9.73
2023-04-11T07:44:15.426Z,9.70
2023-04-11T07:49:17.115Z,9.69
2023-04-11T07:54:18.837Z,9.74
2023-04-11T07:59:21.912Z,9.66
2023-04-11T08:04:23.885Z,9.65
2023-04-11T08:09:27.449Z,9.59
2023-04-11T08:14:30.575Z,9.63
2023-04-11T08:19:32.333Z,9.68
2023-04-11T08:24:34.021Z,9.70
2023-04-11T08:29:37.440Z,9.65
2023-04-11T08:34:39.122Z,9.75
2023-04-11T08:39:49.244Z,9.77
2023-04-11T08:45:05.382Z,9.82
2023-04-11T08:50:16.412Z,9.77
2023-04-11T08:55:25.246Z,9.84
2023-04-11T09:01:00.173Z,9.93
2023-04-11T09:06:09.508Z,10.12
2023-04-11T09:11:17.467Z,10.54
2023-04-11T09:16:25.514Z,10.87
2023-04-11T09:21:31.431Z,10.89
2023-04-11T09:26:33.708Z,10.96
2023-04-11T09:31:42.401Z,11.31
2023-04-11T09:36:44.330Z,11.69
2023-04-11T09:41:46.282Z,11.86
2023-04-11T09:46:58.777Z,11.74
2023-04-11T09:52:01.115Z,11.66
2023-04-11T09:57:02.966Z,11.82
2023-04-11T10:02:06.071Z,11.98
2023-04-11T10:07:11.973Z,12.14
2023-04-11T10:12:13.710Z,12.58
2023-04-11T10:17:20.728Z,12.91
2023-04-11T10:22:58.236Z,13.08
2023-04-11T10:28:06.264Z,12.66
2023-04-11T10:33:12.749Z,12.52
2023-04-11T10:38:46.074Z,12.08
2023-04-11T10:43:47.929Z,11.71
2023-04-11T10:48:58.649Z,11.45
2023-04-11T10:54:00.929Z,11.27
2023-04-11T10:59:03.103Z,11.21
2023-04-11T11:04:06.915Z,11.10
2023-04-11T11:09:20.919Z,11.01
2023-04-11T11:14:27.986Z,11.03
2023-04-11T11:19:31.308Z,11.17
2023-04-11T11:24:33.026Z,11.69
2023-04-11T11:29:36.149Z,12.24
2023-04-11T11:34:39.205Z,12.82
2023-04-11T11:39:40.959Z,13.09
2023-04-11T11:44:42.656Z,13.26
2023-04-11T11:49:46.579Z,13.15
2023-04-11T11:54:48.311Z,12.80
2023-04-11T11:59:53.841Z,11.83
2023-04-11T12:04:58.146Z,11.36
2023-04-11T12:10:00.088Z,11.52
2023-04-11T12:15:02.054Z,11.76
2023-04-11T12:20:06.909Z,12.00
2023-04-11T12:25:09.876Z,12.27
2023-04-11T12:30:12.612Z,12.72
2023-04-11T12:35:15.636Z,13.21
2023-04-11T12:40:17.490Z,13.52
2023-04-11T12:45:19.160Z,13.76
2023-04-11T12:50:25.207Z,13.65
2023-04-11T12:55:27.357Z,13.39
2023-04-11T13:00:29.291Z,13.20
2023-04-11T13:05:32.413Z,13.06
2023-04-11T13:10:34.138Z,12.54
2023-04-11T13:15:35.884Z,12.42
2023-04-11T13:20:39.048Z,12.65
2023-04-11T13:25:41.000Z,12.48
2023-04-11T13:30:42.737Z,12.34
2023-04-11T13:35:45.827Z,12.02
2023-04-11T13:40:47.493Z,11.74
2023-04-11T13:45:49.219Z,11.65
2023-04-11T13:50:52.269Z,11.59
2023-04-11T13:55:54.584Z,11.60
2023-04-11T14:00:56.299Z,11.72
2023-04-11T14:05:59.321Z,11.85
2023-04-11T14:11:01.349Z,11.91
2023-04-11T14:16:08.727Z,12.01
2023-04-11T14:21:12.401Z,12.17
2023-04-11T14:26:14.100Z,12.20
2023-04-11T14:31:15.975Z,12.30
2023-04-11T14:36:19.097Z,12.28
2023-04-11T14:41:20.879Z,11.76
2023-04-11T14:46:22.623Z,10.83
2023-04-11T14:51:27.664Z,9.88
2023-04-11T14:56:29.463Z,9.79
2023-04-11T15:01:31.648Z,9.86
2023-04-11T15:06:35.131Z,9.98
2023-04-11T15:11:37.117Z,10.24
2023-04-11T15:16:38.822Z,10.39
2023-04-11T15:21:41.911Z,10.28
2023-04-11T15:26:44.586Z,10.25
2023-04-11T15:31:46.361Z,10.25
2023-04-11T15:36:50.050Z,10.38
2023-04-11T15:41:51.915Z,10.54
2023-04-11T15:46:53.682Z,10.65
2023-04-11T15:51:56.737Z,10.62
2023-04-11T15:57:07.725Z,10.67
2023-04-11T16:02:09.576Z,10.69
2023-04-11T16:07:12.642Z,10.81
2023-04-11T16:12:14.374Z,10.81
2023-04-11T16:17:18.245Z,10.82
2023-04-11T16:22:21.370Z,10.79
2023-04-11T16:27:23.085Z,10.89
2023-04-11T16:32:24.817Z,10.98
2023-04-11T16:37:27.984Z,11.10
2023-04-11T16:42:29.708Z,11.13
2023-04-11T16:47:31.566Z,11.18
2023-04-11T16:52:34.647Z,11.15
2023-04-11T16:57:36.304Z,11.04
2023-04-11T17:02:38.151Z,10.99
2023-04-11T17:07:41.685Z,10.98
2023-04-11T17:12:43.382Z,10.99
2023-04-11T17:17:45.176Z,10.94
2023-04-11T17:22:48.196Z,10.90
2023-04-11T17:27:49.862Z,10.98
2023-04-11T17:32:52.836Z,11.07
2023-04-11T17:37:55.964Z,11.06
2023-04-11T17:42:57.811Z,10.95
2023-04-11T17:47:59.980Z,10.71
2023-04-11T17:53:04.666Z,10.56
2023-04-11T17:58:06.416Z,10.46
2023-04-11T18:03:08.612Z,10.33
2023-04-11T18:08:13.035Z,10.27
2023-04-11T18:13:14.730Z,10.20
2023-04-11T18:18:16.611Z,10.11
2023-04-11T18:23:19.784Z,10.02
2023-04-11T18:28:21.496Z,9.92
2023-04-11T18:33:24.335Z,9.87
2023-04-11T18:38:27.532Z,9.79
2023-04-11T18:43:29.288Z,9.65
2023-04-11T18:48:31.762Z,9.52
2023-04-11T18:53:36.454Z,9.41
2023-04-11T18:58:45.793Z,9.24
2023-04-11T19:03:49.193Z,9.12
2023-04-11T19:08:52.388Z,9.07
2023-04-11T19:13:55.094Z,9.00
2023-04-11T19:18:57.804Z,8.88
2023-04-11T19:24:00.928Z,8.75
2023-04-11T19:29:02.637Z,8.68
2023-04-11T19:34:04.671Z,8.54
2023-04-11T19:39:08.260Z,8.44
2023-04-11T19:44:10.027Z,8.32
2023-04-11T19:49:11.955Z,8.19
2023-04-11T19:54:15.097Z,8.07
2023-04-11T19:59:16.845Z,7.99
2023-04-11T20:04:18.731Z,7.90
2023-04-11T20:09:21.944Z,7.88
2023-04-11T20:14:23.787Z,7.71
2023-04-11T20:19:28.360Z,7.73
2023-04-11T20:24:31.532Z,7.73
2023-04-11T20:29:33.351Z,7.71
2023-04-11T20:34:35.111Z,7.71
2023-04-11T20:39:38.173Z,7.69
2023-04-11T20:44:41.551Z,7.61
2023-04-11T20:49:45.570Z,7.54
2023-04-11T20:54:48.769Z,7.59
2023-04-11T20:59:50.521Z,7.60
2023-04-11T21:04:53.113Z,7.56
2023-04-11T21:09:56.345Z,7.47
2023-04-11T21:14:58.832Z,7.51
2023-04-11T21:20:00.835Z,7.50
2023-04-11T21:25:04.436Z,7.46
2023-04-11T21:30:07.465Z,7.38
2023-04-11T21:35:09.953Z,7.29
2023-04-11T21:40:13.144Z,7.22
2023-04-11T21:45:15.529Z,7.19
2023-04-11T21:50:17.472Z,7.13
2023-04-11T21:55:21.067Z,7.05
2023-04-11T22:00:23.155Z,6.96
2023-04-11T22:05:26.010Z,6.86
2023-04-11T22:10:41.196Z,6.86
2023-04-11T22:16:05.416Z,6.81
2023-04-11T22:21:09.209Z,6.70
2023-04-11T22:26:12.359Z,6.66
2023-04-11T22:31:14.109Z,6.62
2023-04-11T22:36:16.409Z,6.62
2023-04-11T22:41:19.454Z,6.68
2023-04-11T22:46:21.209Z,6.69
2023-04-11T22:51:25.393Z,6.69
2023-04-11T22:56:28.468Z,6.66
2023-04-11T23:01:30.262Z,6.59
2023-04-11T23:06:32.106Z,6.55
2023-04-11T23:11:35.166Z,6.49
2023-04-11T23:16:36.944Z,6.44
2023-04-11T23:21:38.732Z,6.38
2023-04-11T23:26:42.266Z,6.30
2023-04-11T23:31:44.199Z,6.22
2023-04-11T23:36:45.946Z,6.15
2023-04-11T23:41:49.101Z,6.06
2023-04-11T23:46:50.922Z,5.99
2023-04-11T23:51:52.666Z,5.99
2023-04-11T23:56:57.085Z,5.92
